sensor_id;sensor_type;location;lat;lon;timestamp;P1;durP1;ratioP1;P2;durP2;ratioP2
7340;SDS011;6870;50.944;6.932;2023-01-13T00:01:24;45.50;;;26.77;;
7340;SDS011;6870;50.944;6.932;2023-01-13T00:03:54;34.53;;;24.23;;
7340;SDS011;6870;50.944;6.932;2023-01-13T00:06:23;35.13;;;25.83;;
7340;SDS011;6870;50.944;6.932;2023-01-13T00:08:52;41.37;;;24.80;;
7340;SDS011;6870;50.944;6.932;2023-01-13T00:11:21;37.70;;;24.20;;
7340;SDS011;6870;50.944;6.932;2023-01-13T00:13:49;32.07;;;22.10;;
7340;SDS011;6870;50.944;6.932;2023-01-13T00:16:17;35.87;;;24.90;;
7340;SDS011;6870;50.944;6.932;2023-01-13T00:18:48;30.70;;;21.07;;
7340;SDS011;6870;50.944;6.932;2023-01-13T00:21:18;29.70;;;21.63;;
7340;SDS011;6870;50.944;6.932;2023-01-13T00:23:48;35.50;;;22.90;;
7340;SDS011;6870;50.944;6.932;2023-01-13T00:26:18;34.77;;;22.50;;
7340;SDS011;6870;50.944;6.932;2023-01-13T00:28:49;40.33;;;23.43;;
7340;SDS011;6870;50.944;6.932;2023-01-13T00:31:18;35.73;;;22.43;;
7340;SDS011;6870;50.944;6.932;2023-01-13T00:33:49;34.03;;;20.70;;
7340;SDS011;6870;50.944;6.932;2023-01-13T00:36:18;33.67;;;19.90;;
7340;SDS011;6870;50.944;6.932;2023-01-13T00:38:47;31.33;;;20.37;;
7340;SDS011;6870;50.944;6.932;2023-01-13T00:41:16;35.07;;;22.27;;
7340;SDS011;6870;50.944;6.932;2023-01-13T00:43:46;33.40;;;21.97;;
7340;SDS011;6870;50.944;6.932;2023-01-13T00:46:14;28.77;;;19.17;;
7340;SDS011;6870;50.944;6.932;2023-01-13T00:48:45;30.97;;;19.40;;
7340;SDS011;6870;50.944;6.932;2023-01-13T00:51:15;27.47;;;19.43;;
7340;SDS011;6870;50.944;6.932;2023-01-13T00:53:46;29.63;;;19.40;;
7340;SDS011;6870;50.944;6.932;2023-01-13T00:56:17;29.27;;;20.60;;
7340;SDS011;6870;50.944;6.932;2023-01-13T00:59:05;32.90;;;20.17;;
7340;SDS011;6870;50.944;6.932;2023-01-13T01:01:34;28.07;;;19.60;;
7340;SDS011;6870;50.944;6.932;2023-01-13T01:04:02;28.37;;;19.03;;
7340;SDS011;6870;50.944;6.932;2023-01-13T01:06:32;28.83;;;20.20;;
7340;SDS011;6870;50.944;6.932;2023-01-13T01:09:00;27.70;;;18.40;;
7340;SDS011;6870;50.944;6.932;2023-01-13T01:11:29;27.37;;;17.50;;
7340;SDS011;6870;50.944;6.932;2023-01-13T01:14:00;28.23;;;20.47;;
7340;SDS011;6870;50.944;6.932;2023-01-13T01:16:30;31.80;;;19.83;;
7340;SDS011;6870;50.944;6.932;2023-01-13T01:19:00;30.87;;;19.60;;
7340;SDS011;6870;50.944;6.932;2023-01-13T01:21:29;30.00;;;18.53;;
7340;SDS011;6870;50.944;6.932;2023-01-13T01:23:59;28.73;;;19.47;;
7340;SDS011;6870;50.944;6.932;2023-01-13T01:26:29;28.33;;;18.60;;
7340;SDS011;6870;50.944;6.932;2023-01-13T01:28:58;25.73;;;19.53;;
7340;SDS011;6870;50.944;6.932;2023-01-13T01:31:28;30.53;;;18.40;;
7340;SDS011;6870;50.944;6.932;2023-01-13T01:33:58;30.33;;;20.50;;
7340;SDS011;6870;50.944;6.932;2023-01-13T01:36:27;29.43;;;18.47;;
7340;SDS011;6870;50.944;6.932;2023-01-13T01:38:56;28.80;;;17.87;;
7340;SDS011;6870;50.944;6.932;2023-01-13T01:41:27;26.97;;;18.23;;
7340;SDS011;6870;50.944;6.932;2023-01-13T01:43:59;30.97;;;19.17;;
7340;SDS011;6870;50.944;6.932;2023-01-13T01:46:32;27.73;;;17.80;;
7340;SDS011;6870;50.944;6.932;2023-01-13T01:49:11;30.50;;;17.20;;
7340;SDS011;6870;50.944;6.932;2023-01-13T01:51:45;26.40;;;16.30;;
7340;SDS011;6870;50.944;6.932;2023-01-13T01:54:20;26.70;;;16.17;;
7340;SDS011;6870;50.944;6.932;2023-01-13T01:56:51;23.23;;;16.83;;
7340;SDS011;6870;50.944;6.932;2023-01-13T01:59:20;29.00;;;15.57;;
7340;SDS011;6870;50.944;6.932;2023-01-13T02:01:48;31.67;;;18.40;;
7340;SDS011;6870;50.944;6.932;2023-01-13T02:04:17;23.50;;;16.27;;
7340;SDS011;6870;50.944;6.932;2023-01-13T02:06:51;22.67;;;16.23;;
7340;SDS011;6870;50.944;6.932;2023-01-13T02:09:23;20.50;;;14.43;;
7340;SDS011;6870;50.944;6.932;2023-01-13T02:11:52;24.80;;;14.73;;
7340;SDS011;6870;50.944;6.932;2023-01-13T02:14:38;22.07;;;15.23;;
7340;SDS011;6870;50.944;6.932;2023-01-13T02:17:19;26.07;;;16.33;;
7340;SDS011;6870;50.944;6.932;2023-01-13T02:20:07;23.43;;;15.03;;
7340;SDS011;6870;50.944;6.932;2023-01-13T02:30:00;18.83;;;13.30;;
7340;SDS011;6870;50.944;6.932;2023-01-13T02:32:57;21.33;;;13.67;;
7340;SDS011;6870;50.944;6.932;2023-01-13T02:35:57;19.60;;;12.90;;
7340;SDS011;6870;50.944;6.932;2023-01-13T02:38:32;20.33;;;14.57;;
7340;SDS011;6870;50.944;6.932;2023-01-13T02:41:04;19.20;;;12.87;;
7340;SDS011;6870;50.944;6.932;2023-01-13T02:44:02;21.13;;;14.40;;
7340;SDS011;6870;50.944;6.932;2023-01-13T02:46:38;23.43;;;14.60;;
7340;SDS011;6870;50.944;6.932;2023-01-13T02:49:17;20.40;;;13.53;;
7340;SDS011;6870;50.944;6.932;2023-01-13T02:51:52;19.80;;;13.60;;
7340;SDS011;6870;50.944;6.932;2023-01-13T02:54:26;20.97;;;13.13;;
7340;SDS011;6870;50.944;6.932;2023-01-13T02:56:56;18.27;;;12.60;;
7340;SDS011;6870;50.944;6.932;2023-01-13T02:59:27;18.00;;;12.30;;
7340;SDS011;6870;50.944;6.932;2023-01-13T03:01:58;19.20;;;13.83;;
7340;SDS011;6870;50.944;6.932;2023-01-13T03:04:49;19.13;;;13.57;;
7340;SDS011;6870;50.944;6.932;2023-01-13T03:10:30;17.93;;;11.90;;
7340;SDS011;6870;50.944;6.932;2023-01-13T03:13:19;17.97;;;11.17;;
7340;SDS011;6870;50.944;6.932;2023-01-13T03:15:59;17.53;;;11.70;;
7340;SDS011;6870;50.944;6.932;2023-01-13T03:18:40;24.67;;;12.00;;
7340;SDS011;6870;50.944;6.932;2023-01-13T03:21:14;16.07;;;11.90;;
7340;SDS011;6870;50.944;6.932;2023-01-13T03:23:49;16.87;;;12.70;;
7340;SDS011;6870;50.944;6.932;2023-01-13T03:26:25;15.00;;;11.40;;
7340;SDS011;6870;50.944;6.932;2023-01-13T03:29:00;17.50;;;11.67;;
7340;SDS011;6870;50.944;6.932;2023-01-13T03:31:36;16.80;;;12.40;;
7340;SDS011;6870;50.944;6.932;2023-01-13T03:34:13;17.33;;;11.23;;
7340;SDS011;6870;50.944;6.932;2023-01-13T03:36:48;15.70;;;10.20;;
7340;SDS011;6870;50.944;6.932;2023-01-13T03:39:21;13.70;;;9.90;;
7340;SDS011;6870;50.944;6.932;2023-01-13T03:41:56;15.17;;;10.70;;
7340;SDS011;6870;50.944;6.932;2023-01-13T03:44:28;14.70;;;10.40;;
7340;SDS011;6870;50.944;6.932;2023-01-13T03:47:00;14.20;;;10.40;;
7340;SDS011;6870;50.944;6.932;2023-01-13T03:49:40;15.67;;;10.73;;
7340;SDS011;6870;50.944;6.932;2023-01-13T03:52:14;15.80;;;10.53;;
7340;SDS011;6870;50.944;6.932;2023-01-13T03:54:50;16.73;;;10.00;;
7340;SDS011;6870;50.944;6.932;2023-01-13T03:57:23;14.83;;;9.57;;
7340;SDS011;6870;50.944;6.932;2023-01-13T03:59:56;16.10;;;10.50;;
7340;SDS011;6870;50.944;6.932;2023-01-13T04:02:32;12.33;;;9.20;;
7340;SDS011;6870;50.944;6.932;2023-01-13T04:05:09;15.93;;;10.37;;
7340;SDS011;6870;50.944;6.932;2023-01-13T04:07:40;13.17;;;9.13;;
7340;SDS011;6870;50.944;6.932;2023-01-13T04:10:23;13.03;;;10.10;;
7340;SDS011;6870;50.944;6.932;2023-01-13T04:12:57;17.40;;;9.80;;
7340;SDS011;6870;50.944;6.932;2023-01-13T04:15:31;13.43;;;9.00;;
7340;SDS011;6870;50.944;6.932;2023-01-13T04:18:13;13.77;;;8.80;;
7340;SDS011;6870;50.944;6.932;2023-01-13T04:20:46;11.63;;;8.87;;
7340;SDS011;6870;50.944;6.932;2023-01-13T04:23:16;11.13;;;7.70;;
7340;SDS011;6870;50.944;6.932;2023-01-13T04:25:46;11.50;;;8.00;;
7340;SDS011;6870;50.944;6.932;2023-01-13T04:28:15;10.87;;;8.10;;
7340;SDS011;6870;50.944;6.932;2023-01-13T04:30:44;12.17;;;9.43;;
7340;SDS011;6870;50.944;6.932;2023-01-13T04:33:14;12.60;;;8.07;;
7340;SDS011;6870;50.944;6.932;2023-01-13T04:35:44;13.10;;;9.27;;
7340;SDS011;6870;50.944;6.932;2023-01-13T04:38:15;11.10;;;7.43;;
7340;SDS011;6870;50.944;6.932;2023-01-13T04:40:45;9.93;;;8.00;;
7340;SDS011;6870;50.944;6.932;2023-01-13T04:43:14;11.43;;;7.37;;
7340;SDS011;6870;50.944;6.932;2023-01-13T04:45:42;13.70;;;8.43;;
7340;SDS011;6870;50.944;6.932;2023-01-13T04:48:11;11.20;;;7.60;;
7340;SDS011;6870;50.944;6.932;2023-01-13T04:50:39;12.10;;;8.40;;
7340;SDS011;6870;50.944;6.932;2023-01-13T04:53:09;12.47;;;8.93;;
7340;SDS011;6870;50.944;6.932;2023-01-13T04:55:37;11.37;;;7.97;;
7340;SDS011;6870;50.944;6.932;2023-01-13T04:58:05;10.90;;;7.73;;
7340;SDS011;6870;50.944;6.932;2023-01-13T05:00:36;12.93;;;7.83;;
7340;SDS011;6870;50.944;6.932;2023-01-13T05:03:04;11.67;;;7.53;;
7340;SDS011;6870;50.944;6.932;2023-01-13T05:05:32;9.63;;;7.40;;
7340;SDS011;6870;50.944;6.932;2023-01-13T05:08:00;11.90;;;7.60;;
7340;SDS011;6870;50.944;6.932;2023-01-13T05:10:30;11.73;;;8.23;;
7340;SDS011;6870;50.944;6.932;2023-01-13T05:12:58;8.97;;;7.13;;
7340;SDS011;6870;50.944;6.932;2023-01-13T05:15:43;10.83;;;7.90;;
7340;SDS011;6870;50.944;6.932;2023-01-13T05:18:32;9.20;;;7.70;;
7340;SDS011;6870;50.944;6.932;2023-01-13T05:21:00;8.80;;;6.37;;
7340;SDS011;6870;50.944;6.932;2023-01-13T05:23:28;10.20;;;7.37;;
7340;SDS011;6870;50.944;6.932;2023-01-13T05:26:15;11.70;;;6.73;;
7340;SDS011;6870;50.944;6.932;2023-01-13T05:28:43;7.97;;;5.90;;
7340;SDS011;6870;50.944;6.932;2023-01-13T05:31:11;11.10;;;6.80;;
7340;SDS011;6870;50.944;6.932;2023-01-13T05:33:40;10.80;;;7.50;;
7340;SDS011;6870;50.944;6.932;2023-01-13T05:36:08;6.90;;;5.27;;
7340;SDS011;6870;50.944;6.932;2023-01-13T05:38:36;8.63;;;6.20;;
7340;SDS011;6870;50.944;6.932;2023-01-13T05:41:04;8.90;;;7.23;;
7340;SDS011;6870;50.944;6.932;2023-01-13T05:43:51;9.80;;;6.43;;
7340;SDS011;6870;50.944;6.932;2023-01-13T05:46:19;9.30;;;6.33;;
7340;SDS011;6870;50.944;6.932;2023-01-13T05:48:47;7.97;;;6.00;;
7340;SDS011;6870;50.944;6.932;2023-01-13T05:51:15;10.13;;;6.47;;
7340;SDS011;6870;50.944;6.932;2023-01-13T05:53:44;8.87;;;6.17;;
7340;SDS011;6870;50.944;6.932;2023-01-13T05:56:12;9.20;;;5.63;;
7340;SDS011;6870;50.944;6.932;2023-01-13T05:58:43;9.97;;;6.37;;
7340;SDS011;6870;50.944;6.932;2023-01-13T06:01:12;9.93;;;6.20;;
7340;SDS011;6870;50.944;6.932;2023-01-13T06:03:40;9.20;;;5.20;;
7340;SDS011;6870;50.944;6.932;2023-01-13T06:06:08;8.77;;;6.00;;
7340;SDS011;6870;50.944;6.932;2023-01-13T06:08:36;8.33;;;5.80;;
7340;SDS011;6870;50.944;6.932;2023-01-13T06:11:05;8.77;;;5.50;;
7340;SDS011;6870;50.944;6.932;2023-01-13T06:13:33;7.80;;;5.83;;
7340;SDS011;6870;50.944;6.932;2023-01-13T06:16:01;6.40;;;5.27;;
7340;SDS011;6870;50.944;6.932;2023-01-13T06:18:31;6.97;;;4.70;;
7340;SDS011;6870;50.944;6.932;2023-01-13T06:20:59;6.73;;;4.40;;
7340;SDS011;6870;50.944;6.932;2023-01-13T06:23:27;7.43;;;5.63;;
7340;SDS011;6870;50.944;6.932;2023-01-13T06:26:01;8.23;;;5.80;;
7340;SDS011;6870;50.944;6.932;2023-01-13T06:28:34;6.50;;;4.80;;
7340;SDS011;6870;50.944;6.932;2023-01-13T06:31:05;7.77;;;5.90;;
7340;SDS011;6870;50.944;6.932;2023-01-13T06:33:36;7.27;;;5.03;;
7340;SDS011;6870;50.944;6.932;2023-01-13T06:36:09;7.37;;;5.30;;
7340;SDS011;6870;50.944;6.932;2023-01-13T06:38:41;7.40;;;4.83;;
7340;SDS011;6870;50.944;6.932;2023-01-13T06:41:13;8.60;;;4.53;;
7340;SDS011;6870;50.944;6.932;2023-01-13T06:43:42;7.60;;;4.17;;
7340;SDS011;6870;50.944;6.932;2023-01-13T06:46:09;6.70;;;4.20;;
7340;SDS011;6870;50.944;6.932;2023-01-13T06:48:39;6.13;;;4.60;;
7340;SDS011;6870;50.944;6.932;2023-01-13T06:51:07;7.80;;;4.87;;
7340;SDS011;6870;50.944;6.932;2023-01-13T06:53:35;6.77;;;4.40;;
7340;SDS011;6870;50.944;6.932;2023-01-13T06:56:03;9.67;;;5.37;;
7340;SDS011;6870;50.944;6.932;2023-01-13T06:58:31;7.40;;;4.77;;
7340;SDS011;6870;50.944;6.932;2023-01-13T07:00:59;5.30;;;3.57;;
7340;SDS011;6870;50.944;6.932;2023-01-13T07:03:28;6.73;;;4.60;;
7340;SDS011;6870;50.944;6.932;2023-01-13T07:05:57;5.50;;;3.70;;
7340;SDS011;6870;50.944;6.932;2023-01-13T07:08:27;7.13;;;4.83;;
7340;SDS011;6870;50.944;6.932;2023-01-13T07:10:55;8.50;;;4.37;;
7340;SDS011;6870;50.944;6.932;2023-01-13T07:13:23;7.40;;;4.70;;
7340;SDS011;6870;50.944;6.932;2023-01-13T07:16:09;5.70;;;4.17;;
7340;SDS011;6870;50.944;6.932;2023-01-13T07:18:37;6.10;;;4.10;;
7340;SDS011;6870;50.944;6.932;2023-01-13T07:21:07;8.90;;;4.37;;
7340;SDS011;6870;50.944;6.932;2023-01-13T07:23:39;6.77;;;4.23;;
7340;SDS011;6870;50.944;6.932;2023-01-13T07:26:08;9.20;;;4.13;;
7340;SDS011;6870;50.944;6.932;2023-01-13T07:28:37;6.40;;;4.13;;
7340;SDS011;6870;50.944;6.932;2023-01-13T07:31:11;6.03;;;3.30;;
7340;SDS011;6870;50.944;6.932;2023-01-13T07:33:42;6.63;;;4.13;;
7340;SDS011;6870;50.944;6.932;2023-01-13T07:36:12;9.23;;;4.07;;
7340;SDS011;6870;50.944;6.932;2023-01-13T07:38:41;8.57;;;3.80;;
7340;SDS011;6870;50.944;6.932;2023-01-13T07:41:11;6.57;;;3.80;;
7340;SDS011;6870;50.944;6.932;2023-01-13T07:43:58;5.10;;;3.70;;
7340;SDS011;6870;50.944;6.932;2023-01-13T07:46:30;5.80;;;3.07;;
7340;SDS011;6870;50.944;6.932;2023-01-13T07:48:58;5.73;;;3.03;;
7340;SDS011;6870;50.944;6.932;2023-01-13T07:51:27;4.87;;;3.33;;
7340;SDS011;6870;50.944;6.932;2023-01-13T07:53:55;5.70;;;2.73;;
7340;SDS011;6870;50.944;6.932;2023-01-13T07:56:24;4.23;;;3.10;;
7340;SDS011;6870;50.944;6.932;2023-01-13T07:58:52;7.77;;;3.23;;
7340;SDS011;6870;50.944;6.932;2023-01-13T08:01:20;5.80;;;3.77;;
7340;SDS011;6870;50.944;6.932;2023-01-13T08:03:49;5.23;;;2.93;;
7340;SDS011;6870;50.944;6.932;2023-01-13T08:06:17;5.57;;;3.20;;
7340;SDS011;6870;50.944;6.932;2023-01-13T08:08:46;8.17;;;3.20;;
7340;SDS011;6870;50.944;6.932;2023-01-13T08:11:14;4.43;;;3.03;;
7340;SDS011;6870;50.944;6.932;2023-01-13T08:13:43;5.57;;;3.07;;
7340;SDS011;6870;50.944;6.932;2023-01-13T08:16:12;5.53;;;3.47;;
7340;SDS011;6870;50.944;6.932;2023-01-13T08:18:41;11.33;;;3.33;;
7340;SDS011;6870;50.944;6.932;2023-01-13T08:21:10;7.53;;;3.43;;
7340;SDS011;6870;50.944;6.932;2023-01-13T08:23:40;6.33;;;3.30;;
7340;SDS011;6870;50.944;6.932;2023-01-13T08:26:11;4.10;;;2.90;;
7340;SDS011;6870;50.944;6.932;2023-01-13T08:28:42;5.90;;;3.10;;
7340;SDS011;6870;50.944;6.932;2023-01-13T08:31:11;4.37;;;3.10;;
7340;SDS011;6870;50.944;6.932;2023-01-13T08:33:42;4.43;;;3.40;;
7340;SDS011;6870;50.944;6.932;2023-01-13T08:36:11;4.30;;;2.70;;
7340;SDS011;6870;50.944;6.932;2023-01-13T08:38:39;5.23;;;2.80;;
7340;SDS011;6870;50.944;6.932;2023-01-13T08:41:08;4.57;;;2.53;;
7340;SDS011;6870;50.944;6.932;2023-01-13T08:43:40;8.13;;;3.00;;
7340;SDS011;6870;50.944;6.932;2023-01-13T08:46:08;6.37;;;3.10;;
7340;SDS011;6870;50.944;6.932;2023-01-13T08:48:37;5.00;;;3.40;;
7340;SDS011;6870;50.944;6.932;2023-01-13T08:51:06;6.00;;;2.77;;
7340;SDS011;6870;50.944;6.932;2023-01-13T08:53:35;3.40;;;1.90;;
7340;SDS011;6870;50.944;6.932;2023-01-13T08:56:05;6.33;;;2.90;;
7340;SDS011;6870;50.944;6.932;2023-01-13T08:58:37;3.53;;;1.90;;
7340;SDS011;6870;50.944;6.932;2023-01-13T09:01:06;5.53;;;2.30;;
7340;SDS011;6870;50.944;6.932;2023-01-13T09:03:35;7.67;;;2.70;;
7340;SDS011;6870;50.944;6.932;2023-01-13T09:06:04;5.37;;;2.03;;
7340;SDS011;6870;50.944;6.932;2023-01-13T09:08:32;5.53;;;2.17;;
7340;SDS011;6870;50.944;6.932;2023-01-13T09:11:01;6.40;;;1.90;;
7340;SDS011;6870;50.944;6.932;2023-01-13T09:13:50;6.63;;;2.00;;
7340;SDS011;6870;50.944;6.932;2023-01-13T09:16:17;7.30;;;2.07;;
7340;SDS011;6870;50.944;6.932;2023-01-13T09:18:45;4.70;;;2.20;;
7340;SDS011;6870;50.944;6.932;2023-01-13T09:21:13;6.40;;;2.30;;
7340;SDS011;6870;50.944;6.932;2023-01-13T09:23:44;5.93;;;2.40;;
7340;SDS011;6870;50.944;6.932;2023-01-13T09:26:13;9.50;;;2.53;;
7340;SDS011;6870;50.944;6.932;2023-01-13T09:28:45;6.80;;;2.10;;
7340;SDS011;6870;50.944;6.932;2023-01-13T09:31:15;4.30;;;2.27;;
7340;SDS011;6870;50.944;6.932;2023-01-13T09:33:43;5.83;;;2.20;;
7340;SDS011;6870;50.944;6.932;2023-01-13T09:36:25;5.90;;;1.90;;
7340;SDS011;6870;50.944;6.932;2023-01-13T09:38:53;9.70;;;2.50;;
7340;SDS011;6870;50.944;6.932;2023-01-13T09:41:23;8.03;;;2.30;;
7340;SDS011;6870;50.944;6.932;2023-01-13T09:44:12;6.73;;;2.37;;
7340;SDS011;6870;50.944;6.932;2023-01-13T09:46:47;5.43;;;1.63;;
7340;SDS011;6870;50.944;6.932;2023-01-13T09:49:20;5.50;;;1.80;;
7340;SDS011;6870;50.944;6.932;2023-01-13T09:51:53;5.77;;;1.90;;
7340;SDS011;6870;50.944;6.932;2023-01-13T09:54:28;6.47;;;2.20;;
7340;SDS011;6870;50.944;6.932;2023-01-13T09:57:00;12.93;;;2.03;;
7340;SDS011;6870;50.944;6.932;2023-01-13T09:59:29;6.43;;;2.27;;
7340;SDS011;6870;50.944;6.932;2023-01-13T10:02:03;5.90;;;2.50;;
7340;SDS011;6870;50.944;6.932;2023-01-13T10:05:04;9.97;;;2.97;;
7340;SDS011;6870;50.944;6.932;2023-01-13T10:07:40;11.90;;;2.60;;
7340;SDS011;6870;50.944;6.932;2023-01-13T10:10:17;10.37;;;2.33;;
7340;SDS011;6870;50.944;6.932;2023-01-13T10:12:56;6.73;;;2.53;;
7340;SDS011;6870;50.944;6.932;2023-01-13T10:15:41;11.73;;;2.53;;
7340;SDS011;6870;50.944;6.932;2023-01-13T10:18:24;5.77;;;2.10;;
7340;SDS011;6870;50.944;6.932;2023-01-13T10:20:58;10.57;;;2.10;;
7340;SDS011;6870;50.944;6.932;2023-01-13T10:23:42;8.03;;;2.00;;
7340;SDS011;6870;50.944;6.932;2023-01-13T10:26:34;7.27;;;2.67;;
7340;SDS011;6870;50.944;6.932;2023-01-13T10:29:17;13.90;;;2.80;;
7340;SDS011;6870;50.944;6.932;2023-01-13T10:31:50;8.30;;;2.20;;
7340;SDS011;6870;50.944;6.932;2023-01-13T10:34:20;4.07;;;2.40;;
7340;SDS011;6870;50.944;6.932;2023-01-13T10:36:53;13.60;;;3.20;;
7340;SDS011;6870;50.944;6.932;2023-01-13T10:39:25;11.53;;;3.40;;
7340;SDS011;6870;50.944;6.932;2023-01-13T10:42:01;4.93;;;2.20;;
7340;SDS011;6870;50.944;6.932;2023-01-13T10:44:31;9.13;;;1.60;;
7340;SDS011;6870;50.944;6.932;2023-01-13T10:47:18;9.77;;;3.40;;
7340;SDS011;6870;50.944;6.932;2023-01-13T10:50:18;9.23;;;4.67;;
7340;SDS011;6870;50.944;6.932;2023-01-13T10:52:55;17.20;;;6.80;;
7340;SDS011;6870;50.944;6.932;2023-01-13T10:55:30;13.70;;;8.00;;
7340;SDS011;6870;50.944;6.932;2023-01-13T10:58:12;12.40;;;6.70;;
7340;SDS011;6870;50.944;6.932;2023-01-13T11:00:42;15.57;;;8.63;;
7340;SDS011;6870;50.944;6.932;2023-01-13T11:03:15;17.03;;;8.27;;
7340;SDS011;6870;50.944;6.932;2023-01-13T11:05:48;17.17;;;9.60;;
7340;SDS011;6870;50.944;6.932;2023-01-13T11:08:20;22.97;;;9.97;;
7340;SDS011;6870;50.944;6.932;2023-01-13T11:10:51;17.97;;;9.57;;
7340;SDS011;6870;50.944;6.932;2023-01-13T11:13:24;17.30;;;10.53;;
7340;SDS011;6870;50.944;6.932;2023-01-13T11:15:59;19.43;;;9.30;;
7340;SDS011;6870;50.944;6.932;2023-01-13T11:18:37;16.50;;;10.10;;
7340;SDS011;6870;50.944;6.932;2023-01-13T11:21:20;19.83;;;9.40;;
7340;SDS011;6870;50.944;6.932;2023-01-13T11:23:53;20.83;;;9.70;;
7340;SDS011;6870;50.944;6.932;2023-01-13T11:26:30;20.47;;;10.97;;
7340;SDS011;6870;50.944;6.932;2023-01-13T11:29:10;14.10;;;8.93;;
7340;SDS011;6870;50.944;6.932;2023-01-13T11:31:45;21.17;;;9.97;;
7340;SDS011;6870;50.944;6.932;2023-01-13T11:34:20;21.10;;;11.40;;
7340;SDS011;6870;50.944;6.932;2023-01-13T11:36:57;16.30;;;9.93;;
7340;SDS011;6870;50.944;6.932;2023-01-13T11:39:29;21.30;;;11.57;;
7340;SDS011;6870;50.944;6.932;2023-01-13T11:42:11;22.30;;;10.03;;
7340;SDS011;6870;50.944;6.932;2023-01-13T11:44:52;17.60;;;10.83;;
7340;SDS011;6870;50.944;6.932;2023-01-13T11:47:30;19.83;;;9.97;;
7340;SDS011;6870;50.944;6.932;2023-01-13T11:50:00;20.30;;;10.60;;
7340;SDS011;6870;50.944;6.932;2023-01-13T11:52:37;20.50;;;10.73;;
7340;SDS011;6870;50.944;6.932;2023-01-13T11:55:26;17.10;;;9.27;;
7340;SDS011;6870;50.944;6.932;2023-01-13T12:01:22;18.40;;;9.97;;
7340;SDS011;6870;50.944;6.932;2023-01-13T12:04:08;15.70;;;8.93;;
7340;SDS011;6870;50.944;6.932;2023-01-13T12:06:51;14.10;;;8.60;;
7340;SDS011;6870;50.944;6.932;2023-01-13T12:09:36;15.53;;;8.70;;
7340;SDS011;6870;50.944;6.932;2023-01-13T12:12:21;13.50;;;8.40;;
7340;SDS011;6870;50.944;6.932;2023-01-13T12:18:06;18.80;;;8.70;;
7340;SDS011;6870;50.944;6.932;2023-01-13T12:21:08;16.23;;;8.20;;
7340;SDS011;6870;50.944;6.932;2023-01-13T12:23:47;17.43;;;8.47;;
7340;SDS011;6870;50.944;6.932;2023-01-13T12:26:29;15.93;;;8.43;;
7340;SDS011;6870;50.944;6.932;2023-01-13T12:29:04;14.60;;;7.90;;
7340;SDS011;6870;50.944;6.932;2023-01-13T12:31:34;17.27;;;9.17;;
7340;SDS011;6870;50.944;6.932;2023-01-13T12:34:09;14.37;;;7.17;;
7340;SDS011;6870;50.944;6.932;2023-01-13T12:36:54;11.03;;;7.67;;
7340;SDS011;6870;50.944;6.932;2023-01-13T12:39:36;17.20;;;8.70;;
7340;SDS011;6870;50.944;6.932;2023-01-13T12:42:32;13.47;;;8.47;;
7340;SDS011;6870;50.944;6.932;2023-01-13T12:45:25;15.67;;;7.50;;
7340;SDS011;6870;50.944;6.932;2023-01-13T12:47:55;18.47;;;9.97;;
7340;SDS011;6870;50.944;6.932;2023-01-13T12:50:43;17.73;;;8.87;;
7340;SDS011;6870;50.944;6.932;2023-01-13T12:53:32;13.13;;;7.37;;
7340;SDS011;6870;50.944;6.932;2023-01-13T12:56:19;12.33;;;8.10;;
7340;SDS011;6870;50.944;6.932;2023-01-13T13:02:25;16.40;;;9.37;;
7340;SDS011;6870;50.944;6.932;2023-01-13T13:05:31;17.73;;;7.00;;
7340;SDS011;6870;50.944;6.932;2023-01-13T13:08:21;16.63;;;8.17;;
7340;SDS011;6870;50.944;6.932;2023-01-13T13:10:59;13.13;;;7.83;;
7340;SDS011;6870;50.944;6.932;2023-01-13T13:14:04;12.83;;;7.90;;
7340;SDS011;6870;50.944;6.932;2023-01-13T13:16:33;15.73;;;8.10;;
7340;SDS011;6870;50.944;6.932;2023-01-13T13:22:15;13.37;;;8.03;;
7340;SDS011;6870;50.944;6.932;2023-01-13T13:30:47;21.70;;;15.37;;
7340;SDS011;6870;50.944;6.932;2023-01-13T13:33:40;27.13;;;18.27;;
7340;SDS011;6870;50.944;6.932;2023-01-13T13:36:34;29.77;;;19.53;;
7340;SDS011;6870;50.944;6.932;2023-01-13T13:39:25;30.77;;;20.43;;
7340;SDS011;6870;50.944;6.932;2023-01-13T13:42:15;29.80;;;19.47;;
7340;SDS011;6870;50.944;6.932;2023-01-13T13:45:16;40.13;;;25.80;;
7340;SDS011;6870;50.944;6.932;2023-01-13T13:48:20;42.23;;;28.10;;
7340;SDS011;6870;50.944;6.932;2023-01-13T13:50:51;41.93;;;26.97;;
7340;SDS011;6870;50.944;6.932;2023-01-13T13:53:25;41.47;;;26.73;;
7340;SDS011;6870;50.944;6.932;2023-01-13T13:55:55;47.10;;;27.53;;
7340;SDS011;6870;50.944;6.932;2023-01-13T13:58:27;47.63;;;27.33;;
7340;SDS011;6870;50.944;6.932;2023-01-13T14:01:00;43.27;;;29.60;;
7340;SDS011;6870;50.944;6.932;2023-01-13T14:03:31;65.50;;;32.53;;
7340;SDS011;6870;50.944;6.932;2023-01-13T14:06:05;44.03;;;29.63;;
7340;SDS011;6870;50.944;6.932;2023-01-13T14:08:42;53.53;;;33.47;;
7340;SDS011;6870;50.944;6.932;2023-01-13T14:11:22;57.47;;;32.60;;
7340;SDS011;6870;50.944;6.932;2023-01-13T14:14:04;54.77;;;32.37;;
7340;SDS011;6870;50.944;6.932;2023-01-13T14:16:38;49.83;;;32.47;;
7340;SDS011;6870;50.944;6.932;2023-01-13T14:19:15;56.83;;;32.03;;
7340;SDS011;6870;50.944;6.932;2023-01-13T14:21:55;64.27;;;33.17;;
7340;SDS011;6870;50.944;6.932;2023-01-13T14:24:27;57.07;;;34.80;;
7340;SDS011;6870;50.944;6.932;2023-01-13T14:27:06;55.87;;;33.73;;
7340;SDS011;6870;50.944;6.932;2023-01-13T14:29:38;56.80;;;32.03;;
7340;SDS011;6870;50.944;6.932;2023-01-13T14:32:06;57.30;;;32.10;;
7340;SDS011;6870;50.944;6.932;2023-01-13T14:34:35;49.97;;;32.10;;
7340;SDS011;6870;50.944;6.932;2023-01-13T14:37:17;48.73;;;29.57;;
7340;SDS011;6870;50.944;6.932;2023-01-13T14:39:51;55.50;;;31.77;;
7340;SDS011;6870;50.944;6.932;2023-01-13T14:42:21;49.60;;;31.60;;
7340;SDS011;6870;50.944;6.932;2023-01-13T14:44:50;49.50;;;32.13;;
7340;SDS011;6870;50.944;6.932;2023-01-13T14:47:21;50.07;;;32.77;;
7340;SDS011;6870;50.944;6.932;2023-01-13T14:49:57;60.50;;;32.13;;
7340;SDS011;6870;50.944;6.932;2023-01-13T14:52:30;52.30;;;31.60;;
7340;SDS011;6870;50.944;6.932;2023-01-13T14:55:23;49.20;;;30.97;;
7340;SDS011;6870;50.944;6.932;2023-01-13T15:06:44;45.23;;;28.47;;
7340;SDS011;6870;50.944;6.932;2023-01-13T15:09:21;47.07;;;28.77;;
7340;SDS011;6870;50.944;6.932;2023-01-13T15:11:53;43.40;;;29.40;;
7340;SDS011;6870;50.944;6.932;2023-01-13T15:14:24;42.37;;;29.73;;
7340;SDS011;6870;50.944;6.932;2023-01-13T15:16:58;51.07;;;28.40;;
7340;SDS011;6870;50.944;6.932;2023-01-13T15:19:26;47.17;;;29.23;;
7340;SDS011;6870;50.944;6.932;2023-01-13T15:21:54;45.47;;;27.90;;
7340;SDS011;6870;50.944;6.932;2023-01-13T15:24:22;36.53;;;26.17;;
7340;SDS011;6870;50.944;6.932;2023-01-13T15:26:50;44.83;;;26.57;;
7340;SDS011;6870;50.944;6.932;2023-01-13T15:29:18;43.03;;;28.90;;
7340;SDS011;6870;50.944;6.932;2023-01-13T15:31:48;41.93;;;25.03;;
7340;SDS011;6870;50.944;6.932;2023-01-13T15:34:17;37.10;;;24.57;;
7340;SDS011;6870;50.944;6.932;2023-01-13T15:36:45;42.20;;;26.37;;
7340;SDS011;6870;50.944;6.932;2023-01-13T15:39:13;41.00;;;24.07;;
7340;SDS011;6870;50.944;6.932;2023-01-13T15:41:41;41.30;;;26.43;;
7340;SDS011;6870;50.944;6.932;2023-01-13T15:44:27;32.27;;;22.47;;
7340;SDS011;6870;50.944;6.932;2023-01-13T15:47:13;48.93;;;27.00;;
7340;SDS011;6870;50.944;6.932;2023-01-13T15:49:43;38.67;;;24.03;;
7340;SDS011;6870;50.944;6.932;2023-01-13T15:52:15;39.47;;;23.97;;
7340;SDS011;6870;50.944;6.932;2023-01-13T15:54:47;36.67;;;23.77;;
7340;SDS011;6870;50.944;6.932;2023-01-13T15:57:18;37.77;;;23.23;;
7340;SDS011;6870;50.944;6.932;2023-01-13T15:59:49;40.20;;;24.17;;
7340;SDS011;6870;50.944;6.932;2023-01-13T16:02:18;33.90;;;22.80;;
7340;SDS011;6870;50.944;6.932;2023-01-13T16:04:49;40.23;;;23.57;;
7340;SDS011;6870;50.944;6.932;2023-01-13T16:07:19;37.77;;;21.77;;
7340;SDS011;6870;50.944;6.932;2023-01-13T16:09:49;33.40;;;21.73;;
7340;SDS011;6870;50.944;6.932;2023-01-13T16:12:17;38.90;;;24.03;;
7340;SDS011;6870;50.944;6.932;2023-01-13T16:14:46;34.23;;;24.27;;
7340;SDS011;6870;50.944;6.932;2023-01-13T16:17:14;33.10;;;22.97;;
7340;SDS011;6870;50.944;6.932;2023-01-13T16:19:45;32.97;;;21.57;;